createdAt,value
2019-02-16T00:00:06.064Z,1.40
2019-02-16T00:02:34.798Z,1.40
2019-02-16T00:05:04.128Z,1.70
2019-02-16T00:07:32.875Z,2.20
2019-02-16T00:10:01.554Z,2.90
2019-02-16T00:12:30.185Z,3.60
2019-02-16T00:14:58.902Z,4.30
2019-02-16T00:17:27.583Z,4.80
2019-02-16T00:19:56.322Z,5.20
2019-02-16T00:22:24.922Z,5.60
2019-02-16T00:24:53.587Z,5.90
2019-02-16T00:27:22.204Z,6.20
2019-02-16T00:29:50.863Z,6.40
2019-02-16T00:32:19.481Z,6.50
2019-02-16T00:34:48.208Z,6.60
2019-02-16T00:37:16.814Z,6.60
2019-02-16T00:39:45.476Z,6.30
2019-02-16T00:42:14.148Z,6.00
2019-02-16T00:44:42.816Z,5.60
2019-02-16T00:47:11.494Z,5.20
2019-02-16T00:49:40.098Z,4.80
2019-02-16T00:52:08.971Z,4.50
2019-02-16T00:54:37.580Z,4.30
2019-02-16T00:57:06.301Z,4.10
2019-02-16T00:59:34.903Z,3.90
2019-02-16T01:02:03.982Z,3.90
2019-02-16T01:04:32.660Z,4.00
2019-02-16T01:07:01.316Z,4.10
2019-02-16T01:09:29.920Z,4.40
2019-02-16T01:11:58.585Z,4.70
2019-02-16T01:14:27.277Z,5.00
2019-02-16T01:16:55.885Z,5.50
2019-02-16T01:19:24.504Z,5.60
2019-02-16T01:21:53.162Z,5.80
2019-02-16T01:24:21.820Z,5.90
2019-02-16T01:26:50.502Z,6.10
2019-02-16T01:29:19.165Z,6.20
2019-02-16T01:31:48.065Z,6.20
2019-02-16T01:34:16.794Z,6.20
2019-02-16T01:36:45.466Z,6.20
2019-02-16T01:39:14.079Z,6.20
2019-02-16T01:41:42.751Z,6.20
2019-02-16T01:44:11.484Z,6.30
2019-02-16T01:46:40.096Z,6.20
2019-02-16T01:49:08.700Z,6.10
2019-02-16T01:51:37.361Z,5.90
2019-02-16T01:54:06.037Z,5.70
2019-02-16T01:56:34.695Z,5.50
2019-02-16T01:59:03.301Z,5.20
2019-02-16T02:01:31.970Z,5.10
2019-02-16T02:04:00.570Z,5.00
2019-02-16T02:06:29.236Z,4.90
2019-02-16T02:08:57.909Z,4.80
2019-02-16T02:11:26.669Z,4.60
2019-02-16T02:13:55.328Z,4.50
2019-02-16T02:16:23.934Z,4.30
2019-02-16T02:18:52.577Z,4.10
2019-02-16T02:21:21.194Z,3.90
2019-02-16T02:23:49.857Z,3.80
2019-02-16T02:26:18.450Z,3.60
2019-02-16T02:28:47.096Z,3.40
2019-02-16T02:31:15.717Z,3.20
2019-02-16T02:33:44.368Z,3.10
2019-02-16T02:36:13.039Z,3.00
2019-02-16T02:38:41.708Z,3.10
2019-02-16T02:41:10.399Z,3.10
2019-02-16T02:43:39.117Z,3.10
2019-02-16T02:46:07.782Z,3.00
2019-02-16T02:48:36.462Z,2.90
2019-02-16T02:51:05.242Z,2.80
2019-02-16T02:53:33.859Z,2.80
2019-02-16T02:56:02.526Z,2.90
2019-02-16T02:58:31.207Z,3.00
2019-02-16T03:00:59.870Z,3.00
2019-02-16T03:03:28.478Z,3.10
2019-02-16T03:05:57.211Z,3.50
2019-02-16T03:08:25.824Z,3.70
2019-02-16T03:10:54.479Z,3.90
2019-02-16T03:13:23.096Z,4.00
2019-02-16T03:15:51.751Z,4.10
2019-02-16T03:18:20.359Z,4.30
2019-02-16T03:20:49.087Z,4.30
2019-02-16T03:23:19.326Z,4.30
2019-02-16T03:25:54.155Z,4.40
2019-02-16T03:28:37.981Z,4.30
2019-02-16T03:31:24.454Z,4.20
2019-02-16T03:34:02.205Z,4.10
2019-02-16T03:36:50.227Z,4.00
2019-02-16T03:39:18.980Z,4.00
2019-02-16T03:41:47.710Z,4.00
2019-02-16T03:44:16.397Z,4.00
2019-02-16T03:46:45.059Z,3.90
2019-02-16T03:49:13.801Z,4.00
2019-02-16T03:51:42.408Z,3.90
2019-02-16T03:54:11.027Z,3.90
2019-02-16T03:56:39.693Z,3.90
2019-02-16T03:59:08.494Z,3.90
2019-02-16T04:01:37.102Z,3.90
2019-02-16T04:04:05.909Z,3.80
2019-02-16T04:06:34.694Z,3.70
2019-02-16T04:09:05.304Z,3.50
2019-02-16T04:11:34.191Z,3.30
2019-02-16T04:14:02.843Z,3.10
2019-02-16T04:16:31.515Z,3.00
2019-02-16T04:19:00.121Z,2.80
2019-02-16T04:21:28.848Z,2.70
2019-02-16T04:23:57.523Z,2.50
2019-02-16T04:26:26.188Z,2.30
2019-02-16T04:28:54.874Z,2.20
2019-02-16T04:31:23.609Z,2.10
2019-02-16T04:33:52.220Z,2.00
2019-02-16T04:36:20.859Z,1.90
2019-02-16T04:38:49.466Z,1.80
2019-02-16T04:41:18.126Z,1.70
2019-02-16T04:43:46.803Z,1.60
2019-02-16T04:46:15.477Z,1.50
2019-02-16T04:48:44.084Z,1.40
2019-02-16T04:51:12.740Z,1.40
2019-02-16T04:53:41.395Z,1.20
2019-02-16T04:56:10.208Z,1.10
2019-02-16T04:58:38.860Z,1.10
2019-02-16T05:01:07.520Z,1.00
2019-02-16T05:03:36.131Z,0.90
2019-02-16T05:06:04.872Z,0.90
2019-02-16T05:08:33.472Z,0.80
2019-02-16T05:11:02.154Z,0.80
2019-02-16T05:13:30.769Z,0.80
2019-02-16T05:15:59.483Z,0.80
2019-02-16T05:18:28.093Z,0.70
2019-02-16T05:20:56.697Z,0.70
2019-02-16T05:23:25.360Z,0.60
2019-02-16T05:25:53.972Z,0.60
2019-02-16T05:28:22.624Z,0.60
2019-02-16T05:30:51.371Z,0.50
2019-02-16T05:33:20.040Z,0.50
2019-02-16T05:35:48.655Z,0.50
2019-02-16T05:38:17.248Z,0.50
2019-02-16T05:40:45.914Z,0.50
2019-02-16T05:43:14.651Z,0.40
2019-02-16T05:45:43.324Z,0.40
2019-02-16T05:48:11.989Z,0.40
2019-02-16T05:50:40.656Z,0.40
2019-02-16T05:53:09.265Z,0.40
2019-02-16T05:55:37.880Z,0.40
2019-02-16T05:58:06.539Z,0.40
2019-02-16T06:00:35.217Z,0.40
2019-02-16T06:03:03.966Z,0.30
2019-02-16T06:05:32.606Z,0.30
2019-02-16T06:08:01.343Z,0.30
2019-02-16T06:10:29.948Z,0.30
2019-02-16T06:12:58.607Z,0.20
2019-02-16T06:15:27.270Z,0.20
2019-02-16T06:17:56.010Z,0.20
2019-02-16T06:20:24.669Z,0.10
2019-02-16T06:22:53.279Z,0.10
2019-02-16T06:25:22.010Z,0.10
2019-02-16T06:27:50.677Z,0.00
2019-02-16T06:30:19.339Z,0.00
2019-02-16T06:32:47.944Z,0.00
2019-02-16T06:35:18.244Z,0.00
2019-02-16T06:37:46.890Z,-0.10
2019-02-16T06:40:15.568Z,-0.10
2019-02-16T06:42:44.184Z,-0.10
2019-02-16T06:45:12.927Z,0.00
2019-02-16T06:47:41.576Z,0.00
2019-02-16T06:50:10.346Z,0.00
2019-02-16T06:52:38.998Z,0.00
2019-02-16T06:55:07.794Z,0.00
2019-02-16T06:57:36.647Z,0.00
2019-02-16T07:00:08.366Z,0.00
2019-02-16T07:02:37.180Z,0.00
2019-02-16T07:05:07.133Z,0.00
2019-02-16T07:07:35.792Z,0.10
2019-02-16T07:10:07.898Z,0.10
2019-02-16T07:12:36.589Z,0.20
2019-02-16T07:15:06.785Z,0.20
2019-02-16T07:17:40.603Z,0.40
2019-02-16T07:20:09.779Z,0.60
2019-02-16T07:22:38.565Z,0.90
2019-02-16T07:25:08.008Z,1.10
2019-02-16T07:27:36.764Z,1.20
2019-02-16T07:30:08.254Z,1.40
2019-02-16T07:32:36.917Z,1.40
2019-02-16T07:35:06.824Z,1.50
2019-02-16T07:37:35.469Z,1.60
2019-02-16T07:40:05.711Z,1.60
2019-02-16T07:42:53.852Z,1.60
2019-02-16T07:45:41.816Z,1.60
2019-02-16T07:48:12.121Z,1.60
2019-02-16T07:50:42.367Z,1.70
2019-02-16T07:53:31.414Z,1.80
2019-02-16T07:56:00.539Z,2.00
2019-02-16T07:58:30.907Z,2.40
2019-02-16T08:01:04.006Z,2.80
2019-02-16T08:03:34.396Z,3.30
2019-02-16T08:06:07.346Z,3.70
2019-02-16T08:08:43.776Z,4.10
2019-02-16T08:11:14.082Z,4.60
2019-02-16T08:13:49.953Z,5.30
2019-02-16T08:16:23.196Z,6.10
2019-02-16T08:18:56.394Z,7.00
2019-02-16T08:21:41.666Z,8.10
2019-02-16T08:24:20.834Z,9.30
2019-02-16T08:27:07.475Z,10.50
2019-02-16T08:29:40.319Z,11.40
2019-02-16T08:32:13.684Z,12.50
2019-02-16T08:34:44.071Z,13.30
2019-02-16T08:37:14.395Z,14.00
2019-02-16T08:39:50.696Z,14.70
2019-02-16T08:42:36.397Z,15.20
2019-02-16T08:45:08.563Z,15.50
2019-02-16T08:47:38.798Z,15.90
2019-02-16T08:50:09.244Z,16.20
2019-02-16T08:52:45.584Z,16.40
2019-02-16T08:55:15.915Z,16.70
2019-02-16T08:57:49.198Z,16.90
2019-02-16T09:00:22.221Z,16.90
2019-02-16T09:02:52.512Z,17.20
2019-02-16T09:05:25.812Z,17.50
2019-02-16T09:07:56.118Z,17.50
2019-02-16T09:10:26.380Z,17.80
2019-02-16T09:13:08.682Z,17.90
2019-02-16T09:15:39.007Z,18.20
2019-02-16T09:18:21.460Z,18.30
2019-02-16T09:20:57.495Z,18.50
2019-02-16T09:23:43.000Z,18.70
2019-02-16T09:26:19.387Z,18.90
2019-02-16T09:28:55.396Z,19.40
2019-02-16T09:31:41.957Z,19.60
2019-02-16T09:34:20.952Z,19.90
2019-02-16T09:36:51.370Z,20.30
2019-02-16T09:39:27.564Z,20.30
2019-02-16T09:42:00.919Z,20.40
2019-02-16T09:44:31.282Z,20.60
2019-02-16T09:47:10.934Z,21.00
2019-02-16T09:49:41.247Z,21.00
2019-02-16T09:52:11.555Z,21.10
2019-02-16T09:54:44.602Z,21.30
2019-02-16T09:57:31.446Z,21.40
2019-02-16T10:00:14.114Z,21.70
2019-02-16T10:02:56.222Z,21.80
2019-02-16T10:05:35.122Z,21.80
2019-02-16T10:08:08.479Z,21.90
2019-02-16T10:10:41.681Z,22.00
2019-02-16T10:13:12.020Z,22.10
2019-02-16T10:15:42.286Z,22.50
2019-02-16T10:18:15.308Z,22.50
2019-02-16T10:21:02.087Z,22.50
2019-02-16T10:23:35.356Z,22.30
2019-02-16T10:26:05.612Z,21.90
2019-02-16T10:28:35.863Z,21.60
2019-02-16T10:31:22.701Z,21.40
2019-02-16T10:34:07.750Z,21.50
2019-02-16T10:36:47.140Z,21.50
2019-02-16T10:39:26.276Z,21.70
2019-02-16T10:42:11.650Z,21.90
2019-02-16T10:44:48.039Z,21.90
2019-02-16T10:47:21.038Z,21.90
2019-02-16T10:50:09.553Z,21.70
2019-02-16T10:52:39.868Z,21.80
2019-02-16T10:55:19.354Z,22.00
2019-02-16T10:57:52.079Z,21.90
2019-02-16T11:00:24.995Z,22.10
2019-02-16T11:02:58.286Z,22.20
2019-02-16T11:05:28.597Z,22.10
2019-02-16T11:08:07.825Z,22.20
2019-02-16T11:10:38.217Z,22.10
2019-02-16T11:13:26.658Z,22.30
2019-02-16T11:16:02.766Z,22.20
2019-02-16T11:18:44.764Z,22.20
2019-02-16T11:21:15.152Z,22.40
2019-02-16T11:24:01.387Z,22.50
2019-02-16T11:26:37.974Z,22.10
2019-02-16T11:29:11.232Z,21.70
2019-02-16T11:31:50.742Z,22.00
2019-02-16T11:34:29.739Z,22.20
2019-02-16T11:37:00.122Z,22.00
2019-02-16T11:39:39.625Z,21.70
2019-02-16T11:42:19.003Z,21.40
2019-02-16T11:44:55.388Z,21.40
2019-02-16T11:47:25.645Z,21.50
2019-02-16T11:50:01.917Z,21.40
2019-02-16T11:52:44.430Z,21.40
2019-02-16T11:55:27.015Z,21.20
2019-02-16T11:57:59.771Z,21.20
2019-02-16T12:00:36.192Z,21.30
2019-02-16T12:03:12.329Z,21.20
2019-02-16T12:05:48.229Z,20.90
2019-02-16T12:08:30.759Z,20.70
2019-02-16T12:11:07.178Z,20.40
2019-02-16T12:13:37.485Z,20.30
2019-02-16T12:16:07.747Z,20.30
2019-02-16T12:18:38.067Z,20.40
2019-02-16T12:21:08.471Z,20.40
2019-02-16T12:23:44.890Z,20.30
2019-02-16T12:26:15.141Z,20.10
2019-02-16T12:29:00.472Z,19.80
2019-02-16T12:31:33.789Z,19.40
2019-02-16T12:34:06.846Z,19.10
2019-02-16T12:36:39.990Z,18.80
2019-02-16T12:39:16.384Z,18.60
2019-02-16T12:41:46.712Z,18.40
2019-02-16T12:44:17.162Z,18.20
2019-02-16T12:46:50.198Z,18.20
2019-02-16T12:49:29.265Z,18.20
2019-02-16T12:52:02.153Z,18.00
2019-02-16T12:54:41.283Z,17.90
2019-02-16T12:57:14.587Z,17.80
2019-02-16T12:59:54.179Z,17.80
2019-02-16T13:02:40.829Z,18.10
2019-02-16T13:05:17.265Z,18.20
2019-02-16T13:07:50.294Z,18.10
2019-02-16T13:10:35.904Z,17.90
2019-02-16T13:13:09.182Z,17.70
2019-02-16T13:15:42.894Z,17.50
2019-02-16T13:18:18.924Z,17.30
2019-02-16T13:21:07.396Z,17.20
2019-02-16T13:23:37.659Z,17.20
2019-02-16T13:26:23.970Z,17.20
2019-02-16T13:28:54.280Z,17.20
2019-02-16T13:31:40.099Z,17.30
2019-02-16T13:34:18.965Z,17.30
2019-02-16T13:37:05.332Z,17.30
2019-02-16T13:39:35.663Z,17.30
2019-02-16T13:42:06.060Z,17.40
2019-02-16T13:44:37.496Z,17.30
2019-02-16T13:47:10.716Z,17.30
2019-02-16T13:49:54.278Z,17.20
2019-02-16T13:52:32.504Z,17.20
2019-02-16T13:55:03.381Z,17.30
2019-02-16T13:57:36.340Z,17.20
2019-02-16T14:00:18.496Z,17.20
2019-02-16T14:02:54.911Z,17.20
2019-02-16T14:05:28.203Z,17.20
2019-02-16T14:08:01.617Z,17.20
2019-02-16T14:10:38.045Z,17.10
2019-02-16T14:13:14.172Z,17.10
2019-02-16T14:15:53.316Z,17.10
2019-02-16T14:18:21.998Z,17.10
2019-02-16T14:20:50.672Z,17.00
2019-02-16T14:23:19.358Z,17.00
2019-02-16T14:25:48.041Z,17.10
2019-02-16T14:28:16.727Z,17.10
2019-02-16T14:30:45.516Z,17.10
2019-02-16T14:33:14.132Z,17.10
2019-02-16T14:35:43.328Z,17.00
2019-02-16T14:38:19.626Z,17.00
2019-02-16T14:40:50.127Z,17.00
2019-02-16T14:43:18.824Z,17.10
2019-02-16T14:45:47.504Z,17.10
2019-02-16T14:48:16.120Z,17.10
2019-02-16T14:50:44.745Z,17.00
2019-02-16T14:53:13.421Z,16.90
2019-02-16T14:55:42.039Z,16.80
2019-02-16T14:58:10.711Z,16.70
2019-02-16T15:00:39.330Z,16.80
2019-02-16T15:03:08.926Z,16.80
2019-02-16T15:05:37.549Z,16.80
2019-02-16T15:08:06.436Z,16.80
2019-02-16T15:10:35.384Z,16.70
2019-02-16T15:13:04.054Z,16.70
2019-02-16T15:15:32.836Z,16.70
2019-02-16T15:18:01.526Z,16.50
2019-02-16T15:20:30.275Z,16.30
2019-02-16T15:22:58.960Z,16.10
2019-02-16T15:25:27.628Z,15.90
2019-02-16T15:27:56.321Z,15.60
2019-02-16T15:30:24.996Z,15.30
2019-02-16T15:32:53.614Z,15.20
2019-02-16T15:35:22.348Z,15.00
2019-02-16T15:37:53.067Z,14.80
2019-02-16T15:40:21.820Z,14.60
2019-02-16T15:42:50.609Z,14.50
2019-02-16T15:45:19.379Z,14.40
2019-02-16T15:47:48.190Z,14.30
2019-02-16T15:50:21.021Z,14.10
2019-02-16T15:52:49.696Z,14.00
2019-02-16T15:55:18.394Z,13.80
2019-02-16T15:57:47.123Z,13.60
2019-02-16T16:00:18.439Z,13.50
2019-02-16T16:02:47.157Z,13.40
2019-02-16T16:05:15.935Z,13.30
2019-02-16T16:07:46.355Z,13.20
2019-02-16T16:10:22.724Z,13.10
2019-02-16T16:13:01.817Z,13.00
2019-02-16T16:15:41.523Z,12.80
2019-02-16T16:18:10.916Z,12.60
2019-02-16T16:20:57.181Z,12.50
2019-02-16T16:23:36.435Z,12.30
2019-02-16T16:26:19.039Z,12.10
2019-02-16T16:28:50.437Z,11.90
2019-02-16T16:31:29.187Z,11.80
2019-02-16T16:34:15.989Z,11.60
2019-02-16T16:36:46.281Z,11.40
2019-02-16T16:39:16.672Z,11.20
2019-02-16T16:41:52.923Z,11.10
2019-02-16T16:44:39.312Z,10.90
2019-02-16T16:47:22.411Z,10.70
2019-02-16T16:50:04.707Z,10.50
2019-02-16T16:52:40.701Z,10.40
2019-02-16T16:55:13.861Z,10.30
2019-02-16T16:57:53.106Z,10.10
2019-02-16T17:00:23.559Z,10.00
2019-02-16T17:03:10.174Z,9.80
2019-02-16T17:05:46.258Z,9.60
2019-02-16T17:08:25.632Z,9.30
2019-02-16T17:10:58.883Z,9.10
2019-02-16T17:13:35.333Z,8.90
2019-02-16T17:16:11.228Z,8.70
2019-02-16T17:18:41.498Z,8.60
2019-02-16T17:21:17.738Z,8.50
2019-02-16T17:24:01.725Z,8.30
2019-02-16T17:26:41.187Z,8.30
2019-02-16T17:29:28.742Z,8.10
2019-02-16T17:32:14.258Z,8.00
2019-02-16T17:34:44.606Z,7.80
2019-02-16T17:37:24.118Z,7.70
2019-02-16T17:39:54.391Z,7.60
2019-02-16T17:42:41.412Z,7.50
2019-02-16T17:45:24.107Z,7.40
2019-02-16T17:48:10.651Z,7.30
2019-02-16T17:50:43.734Z,7.20
2019-02-16T17:53:13.988Z,7.20
2019-02-16T17:55:44.395Z,7.10
2019-02-16T17:58:14.756Z,7.10
2019-02-16T18:00:45.225Z,7.00
2019-02-16T18:03:33.546Z,6.90
2019-02-16T18:06:04.017Z,6.80
2019-02-16T18:08:40.663Z,6.70
2019-02-16T18:11:27.560Z,6.50
2019-02-16T18:14:03.587Z,6.40
2019-02-16T18:16:36.867Z,6.30
2019-02-16T18:19:09.591Z,6.30
2019-02-16T18:21:42.934Z,6.20
2019-02-16T18:24:18.883Z,6.10
2019-02-16T18:26:56.124Z,6.00
2019-02-16T18:29:30.311Z,5.90
2019-02-16T18:32:09.619Z,5.80
2019-02-16T18:34:51.991Z,5.80
2019-02-16T18:37:28.091Z,5.70
2019-02-16T18:40:07.183Z,5.60
2019-02-16T18:42:37.472Z,5.60
2019-02-16T18:45:13.748Z,5.60
2019-02-16T18:47:46.863Z,5.40
2019-02-16T18:50:33.325Z,5.30
2019-02-16T18:53:18.325Z,5.20
2019-02-16T18:56:00.559Z,5.10
2019-02-16T18:58:33.369Z,5.00
2019-02-16T19:01:12.389Z,4.90
2019-02-16T19:03:45.554Z,4.80
2019-02-16T19:06:24.932Z,4.80
2019-02-16T19:08:57.987Z,4.80
2019-02-16T19:11:34.235Z,4.70
2019-02-16T19:14:19.763Z,4.70
2019-02-16T19:16:55.980Z,4.60
2019-02-16T19:19:35.546Z,4.60
2019-02-16T19:22:21.971Z,4.60
2019-02-16T19:25:04.479Z,4.50
2019-02-16T19:27:37.519Z,4.40
2019-02-16T19:30:25.905Z,4.40
2019-02-16T19:32:56.200Z,4.40
2019-02-16T19:35:29.435Z,4.30
2019-02-16T19:38:05.335Z,4.20
2019-02-16T19:40:35.579Z,4.10
2019-02-16T19:43:12.212Z,4.00
2019-02-16T19:45:45.400Z,3.90
2019-02-16T19:48:16.878Z,3.80
2019-02-16T19:51:02.434Z,3.80
2019-02-16T19:53:35.470Z,3.70
2019-02-16T19:56:05.804Z,3.70
2019-02-16T19:58:52.152Z,3.60
2019-02-16T20:01:31.427Z,3.50
2019-02-16T20:04:18.315Z,3.40
2019-02-16T20:06:48.565Z,3.40
2019-02-16T20:09:18.873Z,3.30
2019-02-16T20:11:58.429Z,3.30
2019-02-16T20:14:31.601Z,3.30
2019-02-16T20:17:10.755Z,3.30
2019-02-16T20:19:50.311Z,3.30
2019-02-16T20:22:20.702Z,3.30
2019-02-16T20:25:00.291Z,3.30
2019-02-16T20:27:36.971Z,3.30
2019-02-16T20:30:05.599Z,3.20
2019-02-16T20:32:38.800Z,3.20
2019-02-16T20:35:11.899Z,3.10
2019-02-16T20:37:48.286Z,3.00
2019-02-16T20:40:21.626Z,3.00
2019-02-16T20:43:00.986Z,2.90
2019-02-16T20:45:40.632Z,2.90
2019-02-16T20:48:27.385Z,2.90
2019-02-16T20:50:57.694Z,3.00
2019-02-16T20:53:37.192Z,3.10
2019-02-16T20:56:10.479Z,3.20
2019-02-16T20:58:52.934Z,3.20
2019-02-16T21:01:35.260Z,3.10
2019-02-16T21:04:14.970Z,3.10
2019-02-16T21:07:01.692Z,2.90
2019-02-16T21:09:38.408Z,2.90
2019-02-16T21:12:11.553Z,2.80
2019-02-16T21:14:50.796Z,2.80
2019-02-16T21:17:21.157Z,2.60
2019-02-16T21:19:51.493Z,2.50
2019-02-16T21:22:22.104Z,2.40
2019-02-16T21:24:52.292Z,2.30
2019-02-16T21:27:28.580Z,2.20
2019-02-16T21:30:04.762Z,2.10
2019-02-16T21:32:35.105Z,2.10
2019-02-16T21:35:18.332Z,2.00
2019-02-16T21:37:54.286Z,2.00
2019-02-16T21:40:24.535Z,1.90
2019-02-16T21:42:54.847Z,1.90
2019-02-16T21:45:41.287Z,1.80
2019-02-16T21:48:14.332Z,1.80
2019-02-16T21:50:59.911Z,1.80
2019-02-16T21:53:35.881Z,1.70
2019-02-16T21:56:15.574Z,1.60
2019-02-16T21:59:02.221Z,1.60
2019-02-16T22:01:35.519Z,1.40
2019-02-16T22:04:11.840Z,1.40
2019-02-16T22:06:42.152Z,1.40
2019-02-16T22:09:13.149Z,1.40
2019-02-16T22:11:48.940Z,1.40
2019-02-16T22:14:17.610Z,1.40
2019-02-16T22:16:46.277Z,1.30
2019-02-16T22:19:15.029Z,1.30
2019-02-16T22:21:43.685Z,1.30
2019-02-16T22:24:12.419Z,1.20
2019-02-16T22:26:41.029Z,1.20
2019-02-16T22:29:09.752Z,1.20
2019-02-16T22:31:38.492Z,1.20
2019-02-16T22:34:07.163Z,1.20
2019-02-16T22:36:35.781Z,1.10
2019-02-16T22:39:05.092Z,1.10
2019-02-16T22:41:33.765Z,1.10
2019-02-16T22:44:02.533Z,1.00
2019-02-16T22:46:31.280Z,1.00
2019-02-16T22:48:59.955Z,0.90
2019-02-16T22:51:28.565Z,0.90
2019-02-16T22:53:57.303Z,0.90
2019-02-16T22:56:25.962Z,0.90
2019-02-16T22:58:54.632Z,0.80
2019-02-16T23:01:23.380Z,0.80
2019-02-16T23:03:52.200Z,0.70
2019-02-16T23:06:20.881Z,0.70
2019-02-16T23:08:49.498Z,0.70
2019-02-16T23:11:18.306Z,0.60
2019-02-16T23:13:47.054Z,0.60
2019-02-16T23:16:15.863Z,0.70
2019-02-16T23:18:44.563Z,0.70
2019-02-16T23:21:13.302Z,0.70
2019-02-16T23:23:42.001Z,0.70
2019-02-16T23:26:10.804Z,0.60
2019-02-16T23:28:39.486Z,0.60
2019-02-16T23:31:08.168Z,0.60
2019-02-16T23:33:36.842Z,0.60
2019-02-16T23:36:05.604Z,0.50
2019-02-16T23:38:34.275Z,0.60
2019-02-16T23:41:02.960Z,0.60
2019-02-16T23:43:31.576Z,0.60
2019-02-16T23:46:00.334Z,0.60
2019-02-16T23:48:28.945Z,0.60
2019-02-16T23:50:57.706Z,0.60
2019-02-16T23:53:26.415Z,0.60
2019-02-16T23:55:55.163Z,0.70
2019-02-16T23:58:23.786Z,0.80
